createdAt,value
2023-05-01T00:01:34.479Z,65.90
2023-05-01T00:03:56.236Z,65.82
2023-05-01T00:06:17.956Z,64.88
2023-05-01T00:08:39.461Z,65.75
2023-05-01T00:11:04.814Z,65.22
2023-05-01T00:13:26.555Z,64.56
2023-05-01T00:15:49.383Z,64.13
2023-05-01T00:18:11.108Z,63.53
2023-05-01T00:20:32.606Z,63.32
2023-05-01T00:22:54.326Z,63.55
2023-05-01T00:25:15.843Z,64.65
2023-05-01T00:27:37.365Z,65.48
2023-05-01T00:29:59.036Z,66.27
2023-05-01T00:32:20.795Z,65.48
2023-05-01T00:34:42.463Z,67.21
2023-05-01T00:37:03.939Z,68.09
2023-05-01T00:39:25.516Z,66.29
2023-05-01T00:41:47.027Z,65.51
2023-05-01T00:44:08.481Z,65.00
2023-05-01T00:46:31.716Z,64.94
2023-05-01T00:48:53.702Z,64.79
2023-05-01T00:51:15.723Z,64.67
2023-05-01T00:53:37.220Z,67.96
2023-05-01T00:55:59.494Z,68.12
2023-05-01T00:58:21.079Z,67.54
2023-05-01T01:00:42.815Z,66.24
2023-05-01T01:03:04.918Z,65.57
2023-05-01T01:05:30.363Z,66.40
2023-05-01T01:07:58.188Z,67.00
2023-05-01T01:10:30.961Z,68.80
2023-05-01T01:13:25.040Z,68.47
2023-05-01T01:16:04.241Z,68.61
2023-05-01T01:18:40.836Z,67.08
2023-05-01T01:21:14.102Z,68.33
2023-05-01T01:23:42.059Z,67.71
2023-05-01T01:26:34.581Z,66.99
2023-05-01T01:29:36.543Z,66.43
2023-05-01T01:32:35.981Z,69.78
2023-05-01T01:35:04.860Z,69.86
2023-05-01T01:37:33.418Z,69.33
2023-05-01T01:39:58.915Z,68.10
2023-05-01T01:42:26.903Z,68.42
2023-05-01T01:44:52.894Z,69.07
2023-05-01T01:47:16.226Z,69.55
2023-05-01T01:49:42.319Z,69.75
2023-05-01T01:52:07.966Z,68.92
2023-05-01T01:54:35.625Z,68.35
2023-05-01T01:56:59.719Z,68.48
2023-05-01T01:59:23.099Z,68.75
2023-05-01T02:01:46.428Z,68.44
2023-05-01T02:04:09.933Z,67.86
2023-05-01T02:06:34.029Z,68.97
2023-05-01T02:08:57.096Z,68.85
2023-05-01T02:11:21.125Z,69.79
2023-05-01T02:13:44.774Z,68.87
2023-05-01T02:16:07.451Z,68.44
2023-05-01T02:18:29.359Z,68.13
2023-05-01T02:20:52.137Z,69.79
2023-05-01T02:23:13.907Z,70.04
2023-05-01T02:25:38.093Z,70.78
2023-05-01T02:28:03.618Z,69.23
2023-05-01T02:30:25.117Z,68.94
2023-05-01T02:32:46.728Z,69.72
2023-05-01T02:35:08.274Z,68.54
2023-05-01T02:37:31.048Z,69.49
2023-05-01T02:39:52.536Z,71.78
2023-05-01T02:42:17.111Z,71.94
2023-05-01T02:44:57.047Z,70.17
2023-05-01T02:47:22.852Z,69.54
2023-05-01T02:49:47.940Z,69.81
2023-05-01T02:52:11.622Z,70.62
2023-05-01T02:54:34.085Z,70.31
2023-05-01T02:56:55.813Z,72.14
2023-05-01T02:59:17.300Z,72.24
2023-05-01T03:01:39.857Z,72.10
2023-05-01T03:04:01.419Z,70.45
2023-05-01T03:06:22.945Z,70.29
2023-05-01T03:08:44.524Z,70.06
2023-05-01T03:11:07.524Z,69.70
2023-05-01T03:13:28.958Z,69.80
2023-05-01T03:15:50.355Z,69.66
2023-05-01T03:18:11.830Z,69.54
2023-05-01T03:20:34.112Z,69.35
2023-05-01T03:22:56.671Z,69.44
2023-05-01T03:25:18.141Z,71.59
2023-05-01T03:27:39.569Z,72.16
2023-05-01T03:30:01.047Z,71.97
2023-05-01T03:32:22.915Z,72.17
2023-05-01T03:34:45.861Z,70.81
2023-05-01T03:37:07.360Z,70.25
2023-05-01T03:39:28.898Z,69.91
2023-05-01T03:41:50.346Z,70.23
2023-05-01T03:44:11.786Z,71.18
2023-05-01T03:46:33.285Z,73.63
2023-05-01T03:48:54.773Z,71.59
2023-05-01T03:51:17.337Z,71.36
2023-05-01T03:53:39.280Z,71.69
2023-05-01T03:56:00.725Z,72.15
2023-05-01T03:58:23.126Z,72.13
2023-05-01T04:00:44.582Z,71.21
2023-05-01T04:03:06.288Z,70.55
2023-05-01T04:05:27.855Z,70.36
2023-05-01T04:07:49.398Z,73.16
2023-05-01T04:10:10.998Z,73.66
2023-05-01T04:12:32.425Z,73.49
2023-05-01T04:14:53.920Z,74.85
2023-05-01T04:17:15.433Z,73.17
2023-05-01T04:19:37.936Z,72.52
2023-05-01T04:21:59.361Z,75.16
2023-05-01T04:24:20.821Z,73.19
2023-05-01T04:26:43.109Z,73.50
2023-05-01T04:29:04.884Z,76.59
2023-05-01T04:31:26.445Z,75.28
2023-05-01T04:33:48.116Z,74.38
2023-05-01T04:36:09.617Z,73.16
2023-05-01T04:38:31.136Z,74.52
2023-05-01T04:40:52.684Z,74.69
2023-05-01T04:43:14.189Z,73.17
2023-05-01T04:45:35.698Z,75.52
2023-05-01T04:47:57.166Z,74.67
2023-05-01T04:50:18.664Z,75.51
2023-05-01T04:52:40.170Z,73.43
2023-05-01T04:55:01.786Z,74.51
2023-05-01T04:57:23.313Z,74.48
2023-05-01T04:59:44.794Z,73.74
2023-05-01T05:02:06.296Z,72.88
2023-05-01T05:04:28.147Z,72.11
2023-05-01T05:06:49.765Z,71.90
2023-05-01T05:09:11.274Z,74.37
2023-05-01T05:11:32.751Z,74.59
2023-05-01T05:13:54.212Z,73.36
2023-05-01T05:16:15.795Z,75.08
2023-05-01T05:18:37.357Z,73.56
2023-05-01T05:20:59.705Z,73.27
2023-05-01T05:23:21.716Z,72.36
2023-05-01T05:25:43.261Z,72.05
2023-05-01T05:28:04.912Z,75.09
2023-05-01T05:30:27.187Z,73.06
2023-05-01T05:32:48.708Z,73.68
2023-05-01T05:35:10.175Z,72.39
2023-05-01T05:37:31.751Z,71.40
2023-05-01T05:39:53.548Z,72.55
2023-05-01T05:42:15.135Z,72.63
2023-05-01T05:44:36.743Z,72.09
2023-05-01T05:46:58.179Z,76.12
2023-05-01T05:49:19.622Z,74.83
2023-05-01T05:51:41.104Z,72.31
2023-05-01T05:54:02.561Z,71.14
2023-05-01T05:56:24.452Z,71.44
2023-05-01T05:58:46.091Z,72.09
2023-05-01T06:01:09.080Z,71.72
2023-05-01T06:03:30.894Z,71.62
2023-05-01T06:05:52.495Z,71.25
2023-05-01T06:08:14.633Z,69.51
2023-05-01T06:10:37.265Z,69.70
2023-05-01T06:13:09.951Z,68.70
2023-05-01T06:15:37.411Z,68.57
2023-05-01T06:17:59.001Z,68.59
2023-05-01T06:20:20.575Z,68.73
2023-05-01T06:22:42.088Z,70.55
2023-05-01T06:25:04.272Z,70.35
2023-05-01T06:27:25.697Z,68.22
2023-05-01T06:29:47.131Z,67.30
2023-05-01T06:32:08.573Z,66.80
2023-05-01T06:34:30.491Z,65.36
2023-05-01T06:36:51.943Z,65.29
2023-05-01T06:39:13.399Z,64.65
2023-05-01T06:41:36.030Z,64.05
2023-05-01T06:43:58.573Z,63.09
2023-05-01T06:46:20.191Z,62.32
2023-05-01T06:48:41.680Z,59.63
2023-05-01T06:51:03.184Z,59.28
2023-05-01T06:53:24.645Z,55.90
2023-05-01T06:55:46.102Z,57.45
2023-05-01T06:58:22.845Z,55.58
2023-05-01T07:00:45.607Z,56.09
2023-05-01T07:03:07.173Z,53.80
2023-05-01T07:05:28.644Z,53.45
2023-05-01T07:07:57.919Z,52.79
2023-05-01T07:10:22.174Z,51.04
2023-05-01T07:12:43.731Z,49.95
2023-05-01T07:15:05.934Z,48.22
2023-05-01T07:17:27.716Z,49.80
2023-05-01T07:19:50.189Z,49.76
2023-05-01T07:22:12.340Z,48.61
2023-05-01T07:24:33.800Z,48.21
2023-05-01T07:26:56.583Z,46.19
2023-05-01T07:29:18.270Z,48.08
2023-05-01T07:31:41.864Z,49.34
2023-05-01T07:34:04.133Z,48.41
2023-05-01T07:36:25.634Z,47.98
2023-05-01T07:38:47.340Z,47.07
2023-05-01T07:41:08.801Z,46.69
2023-05-01T07:43:30.501Z,46.22
2023-05-01T07:46:00.503Z,46.22
2023-05-01T07:48:22.130Z,47.02
2023-05-01T07:50:43.637Z,45.16
2023-05-01T07:53:05.515Z,45.15
2023-05-01T07:55:27.036Z,45.50
2023-05-01T07:57:48.546Z,44.94
2023-05-01T08:00:10.675Z,43.37
2023-05-01T08:02:32.227Z,43.73
2023-05-01T08:04:53.968Z,44.40
2023-05-01T08:07:15.552Z,42.42
2023-05-01T08:09:37.063Z,42.61
2023-05-01T08:11:58.478Z,43.79
2023-05-01T08:14:20.011Z,43.04
2023-05-01T08:16:41.477Z,41.75
2023-05-01T08:19:02.996Z,42.29
2023-05-01T08:21:24.460Z,42.41
2023-05-01T08:23:45.906Z,41.72
2023-05-01T08:26:07.351Z,41.82
2023-05-01T08:28:28.866Z,41.51
2023-05-01T08:30:50.404Z,40.94
2023-05-01T08:33:12.086Z,40.17
2023-05-01T08:35:33.609Z,40.63
2023-05-01T08:37:56.014Z,39.12
2023-05-01T08:40:17.688Z,39.92
2023-05-01T08:42:39.380Z,40.21
2023-05-01T08:45:01.513Z,39.91
2023-05-01T08:47:23.074Z,39.37
2023-05-01T08:49:45.998Z,40.34
2023-05-01T08:52:08.761Z,39.15
2023-05-01T08:54:32.221Z,38.61
2023-05-01T08:56:55.159Z,38.54
2023-05-01T08:59:18.195Z,37.38
2023-05-01T09:01:41.215Z,36.70
2023-05-01T09:04:04.203Z,36.93
2023-05-01T09:06:28.575Z,37.25
2023-05-01T09:08:50.150Z,37.30
2023-05-01T09:11:12.177Z,36.84
2023-05-01T09:13:33.731Z,36.04
2023-05-01T09:15:55.248Z,36.26
2023-05-01T09:18:16.783Z,35.71
2023-05-01T09:20:38.770Z,34.35
2023-05-01T09:23:00.585Z,36.27
2023-05-01T09:25:22.048Z,34.82
2023-05-01T09:27:44.179Z,34.96
2023-05-01T09:30:07.448Z,34.40
2023-05-01T09:32:29.198Z,34.44
2023-05-01T09:34:52.178Z,34.18
2023-05-01T09:37:31.532Z,34.46
2023-05-01T09:40:10.208Z,34.22
2023-05-01T09:42:32.934Z,32.63
2023-05-01T09:44:54.737Z,33.55
2023-05-01T09:47:25.158Z,31.92
2023-05-01T09:49:50.382Z,32.49
2023-05-01T09:52:12.031Z,31.97
2023-05-01T09:54:33.484Z,30.93
2023-05-01T09:56:54.908Z,30.04
2023-05-01T09:59:21.108Z,29.82
2023-05-01T10:01:48.081Z,30.14
2023-05-01T10:04:10.082Z,29.87
2023-05-01T10:06:31.934Z,29.56
2023-05-01T10:08:54.363Z,28.49
2023-05-01T10:11:16.450Z,28.33
2023-05-01T10:13:37.918Z,27.16
2023-05-01T10:16:01.446Z,28.05
2023-05-01T10:18:24.104Z,26.85
2023-05-01T10:20:45.546Z,28.24
2023-05-01T10:23:07.389Z,28.77
2023-05-01T10:25:29.308Z,28.35
2023-05-01T10:27:52.242Z,27.55
2023-05-01T10:30:14.751Z,28.22
2023-05-01T10:32:41.074Z,27.14
2023-05-01T10:35:11.490Z,27.87
2023-05-01T10:37:44.241Z,27.47
2023-05-01T10:40:39.863Z,26.55
2023-05-01T10:43:20.921Z,25.34
2023-05-01T10:45:46.871Z,26.38
2023-05-01T10:48:08.425Z,25.92
2023-05-01T10:50:29.985Z,26.47
2023-05-01T10:53:10.904Z,25.64
2023-05-01T10:55:39.541Z,25.83
2023-05-01T10:58:01.098Z,27.31
2023-05-01T11:00:22.722Z,26.64
2023-05-01T11:02:44.197Z,26.85
2023-05-01T11:05:05.909Z,26.69
2023-05-01T11:07:28.294Z,26.39
2023-05-01T11:09:55.473Z,26.51
2023-05-01T11:12:55.243Z,25.60
2023-05-01T11:15:27.774Z,26.05
2023-05-01T11:17:49.837Z,26.54
2023-05-01T11:20:12.104Z,27.34
2023-05-01T11:22:35.029Z,26.54
2023-05-01T11:24:56.825Z,25.84
2023-05-01T11:27:18.704Z,26.90
2023-05-01T11:29:41.735Z,27.93
2023-05-01T11:32:03.244Z,29.59
2023-05-01T11:34:25.626Z,28.96
2023-05-01T11:36:49.352Z,28.75
2023-05-01T11:39:15.346Z,29.63
2023-05-01T11:41:37.201Z,29.05
2023-05-01T11:43:59.126Z,28.44
2023-05-01T11:46:30.856Z,28.16
2023-05-01T11:48:52.499Z,27.18
2023-05-01T11:51:14.045Z,27.11
2023-05-01T11:53:35.577Z,27.32
2023-05-01T11:55:57.073Z,27.46
2023-05-01T11:58:29.974Z,27.48
2023-05-01T12:00:51.485Z,28.10
2023-05-01T12:03:14.878Z,27.96
2023-05-01T12:05:38.809Z,28.33
2023-05-01T12:08:20.531Z,28.46
2023-05-01T12:10:43.665Z,28.08
2023-05-01T12:13:07.690Z,27.86
2023-05-01T12:15:29.490Z,27.53
2023-05-01T12:17:52.289Z,27.07
2023-05-01T12:20:13.876Z,26.14
2023-05-01T12:22:35.386Z,26.83
2023-05-01T12:24:57.304Z,27.56
2023-05-01T12:27:19.973Z,27.51
2023-05-01T12:29:42.190Z,27.29
2023-05-01T12:32:03.813Z,26.07
2023-05-01T12:34:32.224Z,26.24
2023-05-01T12:36:55.058Z,26.95
2023-05-01T12:39:16.592Z,25.66
2023-05-01T12:41:47.537Z,27.16
2023-05-01T12:44:19.241Z,26.73
2023-05-01T12:46:41.282Z,27.75
2023-05-01T12:49:02.885Z,28.00
2023-05-01T12:51:24.505Z,28.74
2023-05-01T12:53:46.319Z,28.32
2023-05-01T12:56:07.776Z,29.43
2023-05-01T12:58:36.988Z,27.77
2023-05-01T13:00:58.478Z,29.13
2023-05-01T13:03:26.980Z,28.77
2023-05-01T13:05:53.272Z,29.08
2023-05-01T13:08:14.729Z,29.10
2023-05-01T13:10:36.200Z,29.60
2023-05-01T13:12:58.110Z,29.72
2023-05-01T13:15:21.188Z,28.58
2023-05-01T13:17:43.880Z,29.28
2023-05-01T13:20:05.897Z,29.72
2023-05-01T13:22:34.869Z,30.25
2023-05-01T13:24:57.044Z,31.14
2023-05-01T13:27:21.483Z,31.68
2023-05-01T13:29:43.065Z,31.82
2023-05-01T13:32:08.605Z,30.40
2023-05-01T13:34:31.890Z,31.94
2023-05-01T13:36:55.630Z,33.30
2023-05-01T13:39:22.959Z,34.67
2023-05-01T13:41:44.414Z,35.68
2023-05-01T13:44:06.892Z,35.90
2023-05-01T13:46:28.740Z,36.43
2023-05-01T13:48:50.383Z,36.66
2023-05-01T13:51:13.299Z,37.53
2023-05-01T13:53:35.265Z,37.62
2023-05-01T13:55:56.800Z,37.63
2023-05-01T13:58:18.302Z,37.73
2023-05-01T14:00:39.889Z,39.00
2023-05-01T14:03:01.747Z,38.70
2023-05-01T14:05:30.494Z,37.80
2023-05-01T14:07:56.985Z,37.82
2023-05-01T14:10:19.041Z,37.34
2023-05-01T14:12:40.826Z,37.48
2023-05-01T14:15:03.460Z,37.61
2023-05-01T14:17:34.867Z,37.04
2023-05-01T14:19:56.380Z,37.16
2023-05-01T14:22:17.860Z,37.56
2023-05-01T14:24:41.108Z,37.93
2023-05-01T14:27:02.774Z,37.66
2023-05-01T14:29:27.995Z,38.00
2023-05-01T14:31:49.569Z,38.16
2023-05-01T14:34:15.524Z,37.86
2023-05-01T14:36:37.246Z,37.95
2023-05-01T14:39:00.091Z,37.63
2023-05-01T14:41:21.653Z,37.35
2023-05-01T14:43:44.404Z,38.39
2023-05-01T14:46:06.134Z,38.08
2023-05-01T14:48:35.920Z,37.90
2023-05-01T14:50:59.377Z,37.64
2023-05-01T14:53:21.225Z,37.79
2023-05-01T14:55:42.650Z,38.65
2023-05-01T14:58:04.168Z,39.82
2023-05-01T15:00:26.749Z,39.36
2023-05-01T15:02:48.900Z,39.48
2023-05-01T15:05:10.684Z,38.35
2023-05-01T15:07:32.291Z,37.18
2023-05-01T15:09:53.748Z,36.76
2023-05-01T15:12:15.276Z,37.45
2023-05-01T15:14:36.782Z,37.31
2023-05-01T15:16:58.265Z,37.14
2023-05-01T15:19:19.710Z,37.97
2023-05-01T15:21:41.196Z,38.11
2023-05-01T15:24:02.701Z,38.75
2023-05-01T15:26:24.176Z,39.33
2023-05-01T15:28:45.666Z,39.65
2023-05-01T15:31:07.140Z,40.52
2023-05-01T15:33:28.688Z,39.02
2023-05-01T15:35:51.744Z,39.88
2023-05-01T15:38:13.382Z,39.17
2023-05-01T15:40:35.248Z,38.49
2023-05-01T15:42:57.202Z,39.27
2023-05-01T15:45:18.697Z,38.21
2023-05-01T15:47:40.202Z,38.91
2023-05-01T15:50:01.938Z,39.07
2023-05-01T15:52:23.728Z,38.76
2023-05-01T15:54:48.014Z,39.13
2023-05-01T15:57:10.625Z,38.69
2023-05-01T15:59:32.200Z,39.16
2023-05-01T16:01:55.025Z,38.24
2023-05-01T16:04:16.593Z,38.96
2023-05-01T16:06:38.300Z,39.71
2023-05-01T16:08:59.913Z,39.68
2023-05-01T16:11:21.446Z,39.52
2023-05-01T16:13:47.668Z,39.35
2023-05-01T16:16:14.672Z,39.72
2023-05-01T16:18:36.236Z,40.32
2023-05-01T16:20:58.131Z,39.68
2023-05-01T16:23:19.597Z,38.21
2023-05-01T16:25:43.918Z,36.92
2023-05-01T16:28:06.300Z,36.60
2023-05-01T16:30:28.259Z,37.11
2023-05-01T16:32:49.794Z,36.18
2023-05-01T16:35:17.630Z,35.25
2023-05-01T16:37:39.632Z,35.28
2023-05-01T16:40:01.882Z,36.35
2023-05-01T16:42:23.860Z,35.09
2023-05-01T16:44:45.416Z,34.25
2023-05-01T16:47:06.920Z,34.48
2023-05-01T16:49:28.517Z,34.25
2023-05-01T16:51:50.677Z,34.29
2023-05-01T16:54:12.122Z,34.61
2023-05-01T16:56:33.740Z,34.20
2023-05-01T16:58:55.544Z,34.33
2023-05-01T17:01:17.233Z,34.47
2023-05-01T17:03:38.766Z,34.78
2023-05-01T17:06:00.696Z,35.13
2023-05-01T17:08:22.169Z,35.34
2023-05-01T17:10:45.064Z,35.19
2023-05-01T17:13:07.786Z,34.94
2023-05-01T17:15:29.372Z,35.03
2023-05-01T17:17:50.976Z,34.98
2023-05-01T17:20:13.797Z,35.43
2023-05-01T17:22:35.296Z,36.95
2023-05-01T17:24:57.556Z,36.72
2023-05-01T17:27:18.966Z,37.61
2023-05-01T17:29:41.561Z,37.79
2023-05-01T17:32:04.500Z,38.25
2023-05-01T17:34:26.108Z,39.07
2023-05-01T17:36:47.621Z,39.53
2023-05-01T17:39:09.155Z,39.64
2023-05-01T17:41:30.793Z,40.46
2023-05-01T17:43:52.367Z,41.26
2023-05-01T17:46:14.193Z,41.33
2023-05-01T17:48:35.810Z,42.01
2023-05-01T17:50:57.696Z,42.18
2023-05-01T17:53:19.283Z,42.16
2023-05-01T17:55:40.797Z,42.15
2023-05-01T17:58:02.276Z,42.30
2023-05-01T18:00:24.149Z,42.98
2023-05-01T18:02:46.630Z,43.21
2023-05-01T18:05:08.358Z,43.58
2023-05-01T18:07:32.737Z,43.96
2023-05-01T18:09:54.268Z,44.08
2023-05-01T18:12:15.850Z,44.11
2023-05-01T18:14:37.482Z,44.50
2023-05-01T18:16:59.881Z,44.52
2023-05-01T18:19:21.443Z,44.83
2023-05-01T18:21:42.875Z,45.20
2023-05-01T18:24:04.685Z,45.99
2023-05-01T18:26:27.604Z,46.23
2023-05-01T18:28:49.050Z,47.70
2023-05-01T18:31:10.719Z,47.81
2023-05-01T18:33:32.413Z,47.96
2023-05-01T18:35:53.882Z,48.80
2023-05-01T18:38:15.326Z,50.02
2023-05-01T18:40:37.627Z,50.02
2023-05-01T18:42:59.236Z,51.00
2023-05-01T18:45:20.664Z,50.76
2023-05-01T18:47:42.247Z,50.28
2023-05-01T18:50:05.044Z,50.38
2023-05-01T18:52:26.645Z,50.69
2023-05-01T18:54:48.055Z,50.52
2023-05-01T18:57:09.581Z,51.30
2023-05-01T18:59:32.089Z,51.47
2023-05-01T19:01:54.017Z,51.36
2023-05-01T19:04:15.617Z,51.53
2023-05-01T19:06:37.327Z,52.01
2023-05-01T19:08:59.534Z,53.33
2023-05-01T19:11:21.649Z,53.16
2023-05-01T19:13:43.123Z,55.35
2023-05-01T19:16:04.882Z,54.37
2023-05-01T19:18:26.438Z,54.14
2023-05-01T19:20:47.894Z,53.91
2023-05-01T19:23:09.353Z,54.79
2023-05-01T19:25:32.405Z,54.77
2023-05-01T19:27:53.969Z,54.72
2023-05-01T19:30:16.455Z,54.25
2023-05-01T19:32:38.395Z,54.81
2023-05-01T19:34:59.944Z,55.39
2023-05-01T19:37:21.434Z,55.07
2023-05-01T19:39:42.873Z,55.07
2023-05-01T19:42:04.358Z,54.94
2023-05-01T19:44:25.934Z,55.13
2023-05-01T19:46:47.420Z,57.14
2023-05-01T19:49:08.931Z,57.05
2023-05-01T19:51:31.609Z,56.82
2023-05-01T19:53:53.141Z,56.52
2023-05-01T19:56:14.628Z,56.70
2023-05-01T19:58:36.810Z,56.71
2023-05-01T20:01:02.181Z,56.57
2023-05-01T20:03:24.027Z,58.64
2023-05-01T20:05:45.783Z,57.74
2023-05-01T20:08:07.436Z,57.22
2023-05-01T20:10:28.966Z,59.43
2023-05-01T20:12:50.476Z,58.41
2023-05-01T20:15:12.064Z,57.92
2023-05-01T20:17:34.365Z,58.04
2023-05-01T20:19:56.204Z,60.52
2023-05-01T20:22:17.952Z,59.97
2023-05-01T20:24:39.445Z,61.12
2023-05-01T20:27:00.911Z,60.17
2023-05-01T20:29:22.415Z,59.92
2023-05-01T20:31:43.890Z,59.37
2023-05-01T20:34:05.767Z,59.25
2023-05-01T20:36:27.527Z,60.24
2023-05-01T20:38:52.960Z,61.11
2023-05-01T20:41:14.893Z,61.04
2023-05-01T20:43:36.630Z,61.30
2023-05-01T20:45:58.131Z,60.87
2023-05-01T20:48:19.664Z,60.47
2023-05-01T20:50:43.640Z,60.23
2023-05-01T20:53:05.157Z,60.49
2023-05-01T20:55:28.054Z,60.42
2023-05-01T20:57:49.572Z,60.68
2023-05-01T21:00:11.492Z,60.70
2023-05-01T21:02:33.285Z,60.80
2023-05-01T21:04:55.011Z,60.85
2023-05-01T21:07:16.526Z,60.68
2023-05-01T21:09:43.757Z,60.52
2023-05-01T21:12:06.484Z,60.83
2023-05-01T21:14:28.025Z,61.02
2023-05-01T21:16:49.527Z,62.59
2023-05-01T21:19:12.854Z,62.14
2023-05-01T21:21:36.290Z,62.30
2023-05-01T21:23:57.736Z,62.40
2023-05-01T21:26:19.766Z,63.93
2023-05-01T21:28:41.412Z,64.07
2023-05-01T21:31:03.260Z,64.41
2023-05-01T21:33:25.139Z,63.60
2023-05-01T21:35:46.754Z,63.58
2023-05-01T21:38:08.529Z,63.74
2023-05-01T21:40:29.941Z,63.75
2023-05-01T21:42:53.324Z,64.26
2023-05-01T21:45:17.479Z,64.63
2023-05-01T21:47:42.296Z,64.58
2023-05-01T21:50:04.784Z,64.38
2023-05-01T21:52:29.372Z,67.89
2023-05-01T21:54:50.858Z,66.53
2023-05-01T21:57:12.468Z,65.82
2023-05-01T21:59:38.377Z,68.33
2023-05-01T22:01:59.835Z,68.77
2023-05-01T22:04:21.547Z,70.37
2023-05-01T22:06:43.076Z,68.15
2023-05-01T22:09:04.707Z,67.83
2023-05-01T22:11:26.285Z,67.24
2023-05-01T22:13:47.870Z,71.24
2023-05-01T22:16:09.330Z,70.65
2023-05-01T22:18:30.840Z,69.11
2023-05-01T22:20:52.584Z,72.30
2023-05-01T22:23:14.421Z,73.44
2023-05-01T22:25:35.841Z,72.26
2023-05-01T22:27:57.854Z,71.97
2023-05-01T22:30:19.337Z,71.28
2023-05-01T22:32:40.864Z,70.11
2023-05-01T22:35:02.457Z,69.71
2023-05-01T22:37:25.639Z,72.41
2023-05-01T22:39:47.251Z,70.60
2023-05-01T22:42:08.879Z,69.88
2023-05-01T22:44:30.791Z,69.22
2023-05-01T22:46:52.252Z,68.70
2023-05-01T22:49:13.733Z,68.33
2023-05-01T22:51:35.442Z,68.20
2023-05-01T22:53:56.922Z,68.05
2023-05-01T22:56:18.502Z,69.81
2023-05-01T22:58:39.981Z,68.64
2023-05-01T23:01:01.501Z,70.08
2023-05-01T23:03:23.100Z,69.76
2023-05-01T23:05:44.635Z,70.47
2023-05-01T23:08:06.326Z,69.68
2023-05-01T23:10:28.597Z,70.81
2023-05-01T23:12:50.107Z,71.01
2023-05-01T23:15:17.015Z,73.27
2023-05-01T23:17:39.722Z,72.09
2023-05-01T23:20:02.101Z,73.51
2023-05-01T23:22:23.986Z,72.93
2023-05-01T23:24:49.871Z,72.15
2023-05-01T23:27:12.354Z,71.57
2023-05-01T23:29:34.167Z,76.15
2023-05-01T23:31:56.981Z,75.71
2023-05-01T23:34:18.678Z,74.26
2023-05-01T23:36:43.680Z,74.38
2023-05-01T23:39:05.105Z,73.56
2023-05-01T23:41:26.739Z,78.41
2023-05-01T23:43:48.232Z,77.90
2023-05-01T23:46:09.700Z,75.82
2023-05-01T23:48:33.400Z,76.21
2023-05-01T23:50:55.394Z,76.96
2023-05-01T23:53:16.842Z,75.23
2023-05-01T23:55:38.348Z,76.38
2023-05-01T23:57:59.836Z,75.68
